sensor_id;sensor_type;location;lat;lon;timestamp;P1;durP1;ratioP1;P2;durP2;ratioP2
23078;SDS011;11707;50.830;4.364;2022-07-21T00:01:18;16.30;;;12.35;;
23078;SDS011;11707;50.830;4.364;2022-07-21T00:03:43;17.45;;;13.40;;
23078;SDS011;11707;50.830;4.364;2022-07-21T00:06:09;15.38;;;13.35;;
23078;SDS011;11707;50.830;4.364;2022-07-21T00:08:35;17.17;;;13.23;;
23078;SDS011;11707;50.830;4.364;2022-07-21T00:11:00;17.17;;;13.40;;
23078;SDS011;11707;50.830;4.364;2022-07-21T00:13:26;15.55;;;13.93;;
23078;SDS011;11707;50.830;4.364;2022-07-21T00:15:52;16.85;;;13.90;;
23078;SDS011;11707;50.830;4.364;2022-07-21T00:18:18;19.25;;;14.60;;
23078;SDS011;11707;50.830;4.364;2022-07-21T00:20:44;15.88;;;14.07;;
23078;SDS011;11707;50.830;4.364;2022-07-21T00:23:10;17.80;;;13.63;;
23078;SDS011;11707;50.830;4.364;2022-07-21T00:25:36;18.25;;;14.85;;
23078;SDS011;11707;50.830;4.364;2022-07-21T00:28:02;16.17;;;12.93;;
23078;SDS011;11707;50.830;4.364;2022-07-21T00:30:28;16.55;;;13.15;;
23078;SDS011;11707;50.830;4.364;2022-07-21T00:32:54;16.67;;;13.45;;
23078;SDS011;11707;50.830;4.364;2022-07-21T00:35:20;13.75;;;12.35;;
23078;SDS011;11707;50.830;4.364;2022-07-21T00:37:46;15.70;;;14.00;;
23078;SDS011;11707;50.830;4.364;2022-07-21T00:40:12;15.98;;;12.65;;
23078;SDS011;11707;50.830;4.364;2022-07-21T00:42:38;15.98;;;14.27;;
23078;SDS011;11707;50.830;4.364;2022-07-21T00:45:06;15.27;;;13.68;;
23078;SDS011;11707;50.830;4.364;2022-07-21T00:47:32;15.48;;;13.18;;
23078;SDS011;11707;50.830;4.364;2022-07-21T00:50:00;14.32;;;12.82;;
23078;SDS011;11707;50.830;4.364;2022-07-21T00:52:28;14.32;;;12.75;;
23078;SDS011;11707;50.830;4.364;2022-07-21T00:54:54;14.85;;;13.07;;
23078;SDS011;11707;50.830;4.364;2022-07-21T00:57:20;17.83;;;13.88;;
23078;SDS011;11707;50.830;4.364;2022-07-21T00:59:46;18.83;;;13.25;;
23078;SDS011;11707;50.830;4.364;2022-07-21T01:02:12;15.02;;;13.43;;
23078;SDS011;11707;50.830;4.364;2022-07-21T01:04:38;15.57;;;13.82;;
23078;SDS011;11707;50.830;4.364;2022-07-21T01:07:04;19.13;;;13.02;;
23078;SDS011;11707;50.830;4.364;2022-07-21T01:09:30;15.77;;;12.82;;
23078;SDS011;11707;50.830;4.364;2022-07-21T01:11:58;14.77;;;11.68;;
23078;SDS011;11707;50.830;4.364;2022-07-21T01:14:24;20.98;;;11.43;;
23078;SDS011;11707;50.830;4.364;2022-07-21T01:16:51;13.48;;;12.07;;
23078;SDS011;11707;50.830;4.364;2022-07-21T01:19:17;17.67;;;11.90;;
23078;SDS011;11707;50.830;4.364;2022-07-21T01:21:43;14.93;;;11.73;;
23078;SDS011;11707;50.830;4.364;2022-07-21T01:24:11;15.75;;;11.98;;
23078;SDS011;11707;50.830;4.364;2022-07-21T01:26:44;13.90;;;11.85;;
23078;SDS011;11707;50.830;4.364;2022-07-21T01:29:12;16.58;;;12.85;;
23078;SDS011;11707;50.830;4.364;2022-07-21T01:31:39;15.75;;;12.52;;
23078;SDS011;11707;50.830;4.364;2022-07-21T01:34:06;13.75;;;12.20;;
23078;SDS011;11707;50.830;4.364;2022-07-21T01:36:32;15.00;;;12.82;;
23078;SDS011;11707;50.830;4.364;2022-07-21T01:38:58;16.65;;;11.93;;
23078;SDS011;11707;50.830;4.364;2022-07-21T01:41:42;17.17;;;12.45;;
23078;SDS011;11707;50.830;4.364;2022-07-21T01:44:09;17.08;;;12.27;;
23078;SDS011;11707;50.830;4.364;2022-07-21T01:46:39;16.73;;;11.38;;
23078;SDS011;11707;50.830;4.364;2022-07-21T01:49:09;19.48;;;11.88;;
23078;SDS011;11707;50.830;4.364;2022-07-21T01:51:35;15.98;;;11.82;;
23078;SDS011;11707;50.830;4.364;2022-07-21T01:54:02;14.38;;;12.27;;
23078;SDS011;11707;50.830;4.364;2022-07-21T01:56:28;17.15;;;11.82;;
23078;SDS011;11707;50.830;4.364;2022-07-21T01:58:54;14.13;;;11.73;;
23078;SDS011;11707;50.830;4.364;2022-07-21T02:01:23;16.33;;;11.40;;
23078;SDS011;11707;50.830;4.364;2022-07-21T02:03:51;17.40;;;11.85;;
23078;SDS011;11707;50.830;4.364;2022-07-21T02:06:18;14.60;;;11.45;;
23078;SDS011;11707;50.830;4.364;2022-07-21T02:08:44;15.05;;;12.10;;
23078;SDS011;11707;50.830;4.364;2022-07-21T02:11:11;18.63;;;11.45;;
23078;SDS011;11707;50.830;4.364;2022-07-21T02:13:38;16.25;;;11.00;;
23078;SDS011;11707;50.830;4.364;2022-07-21T02:16:04;16.98;;;12.27;;
23078;SDS011;11707;50.830;4.364;2022-07-21T02:18:30;15.95;;;11.00;;
23078;SDS011;11707;50.830;4.364;2022-07-21T02:20:56;16.35;;;11.23;;
23078;SDS011;11707;50.830;4.364;2022-07-21T02:23:23;21.70;;;10.65;;
23078;SDS011;11707;50.830;4.364;2022-07-21T02:25:50;15.13;;;10.07;;
23078;SDS011;11707;50.830;4.364;2022-07-21T02:28:17;15.05;;;10.52;;
23078;SDS011;11707;50.830;4.364;2022-07-21T02:30:46;16.15;;;10.20;;
23078;SDS011;11707;50.830;4.364;2022-07-21T02:33:12;15.45;;;10.30;;
23078;SDS011;11707;50.830;4.364;2022-07-21T02:35:38;15.10;;;10.50;;
23078;SDS011;11707;50.830;4.364;2022-07-21T02:38:04;18.20;;;11.65;;
23078;SDS011;11707;50.830;4.364;2022-07-21T02:40:30;15.88;;;10.30;;
23078;SDS011;11707;50.830;4.364;2022-07-21T02:42:56;13.27;;;9.20;;
23078;SDS011;11707;50.830;4.364;2022-07-21T02:45:21;15.75;;;8.73;;
23078;SDS011;11707;50.830;4.364;2022-07-21T02:50:41;18.02;;;8.80;;
23078;SDS011;11707;50.830;4.364;2022-07-21T02:53:12;20.65;;;10.18;;
23078;SDS011;11707;50.830;4.364;2022-07-21T02:55:48;16.48;;;8.30;;
23078;SDS011;11707;50.830;4.364;2022-07-21T02:58:19;14.60;;;8.05;;
23078;SDS011;11707;50.830;4.364;2022-07-21T03:00:56;14.00;;;8.10;;
23078;SDS011;11707;50.830;4.364;2022-07-21T03:03:26;10.02;;;7.90;;
23078;SDS011;11707;50.830;4.364;2022-07-21T03:05:53;15.57;;;8.27;;
23078;SDS011;11707;50.830;4.364;2022-07-21T03:08:19;10.93;;;7.70;;
23078;SDS011;11707;50.830;4.364;2022-07-21T03:10:45;15.02;;;8.30;;
23078;SDS011;11707;50.830;4.364;2022-07-21T03:13:11;10.27;;;7.40;;
23078;SDS011;11707;50.830;4.364;2022-07-21T03:15:37;13.05;;;7.70;;
23078;SDS011;11707;50.830;4.364;2022-07-21T03:18:04;11.35;;;7.75;;
23078;SDS011;11707;50.830;4.364;2022-07-21T03:20:31;12.63;;;8.43;;
23078;SDS011;11707;50.830;4.364;2022-07-21T03:22:58;13.90;;;7.63;;
23078;SDS011;11707;50.830;4.364;2022-07-21T03:25:24;17.23;;;7.72;;
23078;SDS011;11707;50.830;4.364;2022-07-21T03:27:51;16.00;;;8.13;;
23078;SDS011;11707;50.830;4.364;2022-07-21T03:30:17;22.42;;;8.55;;
23078;SDS011;11707;50.830;4.364;2022-07-21T03:32:43;10.88;;;7.00;;
23078;SDS011;11707;50.830;4.364;2022-07-21T03:35:09;13.70;;;7.68;;
23078;SDS011;11707;50.830;4.364;2022-07-21T03:37:40;13.43;;;7.38;;
23078;SDS011;11707;50.830;4.364;2022-07-21T03:40:12;17.17;;;8.23;;
23078;SDS011;11707;50.830;4.364;2022-07-21T03:42:39;14.77;;;8.43;;
23078;SDS011;11707;50.830;4.364;2022-07-21T03:45:05;19.63;;;9.15;;
23078;SDS011;11707;50.830;4.364;2022-07-21T03:47:32;11.43;;;8.88;;
23078;SDS011;11707;50.830;4.364;2022-07-21T03:49:57;13.52;;;8.90;;
23078;SDS011;11707;50.830;4.364;2022-07-21T03:52:23;18.33;;;8.15;;
23078;SDS011;11707;50.830;4.364;2022-07-21T03:54:49;12.82;;;9.00;;
23078;SDS011;11707;50.830;4.364;2022-07-21T03:57:14;14.00;;;8.77;;
23078;SDS011;11707;50.830;4.364;2022-07-21T03:59:40;16.27;;;10.52;;
23078;SDS011;11707;50.830;4.364;2022-07-21T04:02:06;17.00;;;9.85;;
23078;SDS011;11707;50.830;4.364;2022-07-21T04:04:32;17.75;;;11.52;;
23078;SDS011;11707;50.830;4.364;2022-07-21T04:06:57;24.50;;;9.68;;
23078;SDS011;11707;50.830;4.364;2022-07-21T04:09:23;13.75;;;10.18;;
23078;SDS011;11707;50.830;4.364;2022-07-21T04:11:49;25.17;;;10.85;;
23078;SDS011;11707;50.830;4.364;2022-07-21T04:14:14;16.88;;;10.63;;
23078;SDS011;11707;50.830;4.364;2022-07-21T04:16:41;18.67;;;11.23;;
23078;SDS011;11707;50.830;4.364;2022-07-21T04:19:06;20.42;;;12.43;;
23078;SDS011;11707;50.830;4.364;2022-07-21T04:21:33;17.63;;;11.93;;
23078;SDS011;11707;50.830;4.364;2022-07-21T04:23:58;21.52;;;12.20;;
23078;SDS011;11707;50.830;4.364;2022-07-21T04:26:24;25.88;;;12.93;;
23078;SDS011;11707;50.830;4.364;2022-07-21T04:28:52;18.85;;;12.23;;
23078;SDS011;11707;50.830;4.364;2022-07-21T04:31:18;19.60;;;12.68;;
23078;SDS011;11707;50.830;4.364;2022-07-21T04:33:44;19.88;;;13.55;;
23078;SDS011;11707;50.830;4.364;2022-07-21T04:36:10;17.38;;;12.30;;
23078;SDS011;11707;50.830;4.364;2022-07-21T04:38:35;19.98;;;12.65;;
23078;SDS011;11707;50.830;4.364;2022-07-21T04:41:01;29.63;;;13.55;;
23078;SDS011;11707;50.830;4.364;2022-07-21T04:43:27;17.50;;;13.10;;
23078;SDS011;11707;50.830;4.364;2022-07-21T04:45:52;22.27;;;12.77;;
23078;SDS011;11707;50.830;4.364;2022-07-21T04:48:18;21.38;;;12.38;;
23078;SDS011;11707;50.830;4.364;2022-07-21T04:50:44;20.90;;;13.18;;
23078;SDS011;11707;50.830;4.364;2022-07-21T04:53:09;18.58;;;11.90;;
23078;SDS011;11707;50.830;4.364;2022-07-21T04:55:36;20.33;;;12.38;;
23078;SDS011;11707;50.830;4.364;2022-07-21T04:58:02;24.73;;;14.20;;
23078;SDS011;11707;50.830;4.364;2022-07-21T05:00:28;19.85;;;13.70;;
23078;SDS011;11707;50.830;4.364;2022-07-21T05:02:54;19.73;;;13.68;;
23078;SDS011;11707;50.830;4.364;2022-07-21T05:05:20;20.27;;;13.60;;
23078;SDS011;11707;50.830;4.364;2022-07-21T05:07:46;22.55;;;17.55;;
23078;SDS011;11707;50.830;4.364;2022-07-21T05:10:14;23.27;;;14.88;;
23078;SDS011;11707;50.830;4.364;2022-07-21T05:12:41;25.20;;;14.75;;
23078;SDS011;11707;50.830;4.364;2022-07-21T05:15:07;22.15;;;15.52;;
23078;SDS011;11707;50.830;4.364;2022-07-21T05:17:36;20.70;;;15.23;;
23078;SDS011;11707;50.830;4.364;2022-07-21T05:20:02;23.48;;;15.68;;
23078;SDS011;11707;50.830;4.364;2022-07-21T05:22:29;22.05;;;15.73;;
23078;SDS011;11707;50.830;4.364;2022-07-21T05:24:54;25.73;;;16.00;;
23078;SDS011;11707;50.830;4.364;2022-07-21T05:27:20;24.35;;;16.40;;
23078;SDS011;11707;50.830;4.364;2022-07-21T05:29:46;22.08;;;16.77;;
23078;SDS011;11707;50.830;4.364;2022-07-21T05:32:11;26.80;;;17.90;;
23078;SDS011;11707;50.830;4.364;2022-07-21T05:34:37;24.75;;;17.33;;
23078;SDS011;11707;50.830;4.364;2022-07-21T05:37:02;27.85;;;18.67;;
23078;SDS011;11707;50.830;4.364;2022-07-21T05:39:28;28.52;;;18.85;;
23078;SDS011;11707;50.830;4.364;2022-07-21T05:41:54;30.58;;;20.15;;
23078;SDS011;11707;50.830;4.364;2022-07-21T05:44:20;38.45;;;19.80;;
23078;SDS011;11707;50.830;4.364;2022-07-21T05:46:45;29.77;;;19.50;;
23078;SDS011;11707;50.830;4.364;2022-07-21T05:49:11;25.02;;;19.05;;
23078;SDS011;11707;50.830;4.364;2022-07-21T05:51:37;30.17;;;19.73;;
23078;SDS011;11707;50.830;4.364;2022-07-21T05:54:04;32.20;;;20.63;;
23078;SDS011;11707;50.830;4.364;2022-07-21T05:56:29;29.17;;;19.60;;
23078;SDS011;11707;50.830;4.364;2022-07-21T05:58:55;27.73;;;19.92;;
23078;SDS011;11707;50.830;4.364;2022-07-21T06:01:21;33.28;;;19.92;;
23078;SDS011;11707;50.830;4.364;2022-07-21T06:03:47;28.25;;;19.83;;
23078;SDS011;11707;50.830;4.364;2022-07-21T06:06:15;32.63;;;19.60;;
23078;SDS011;11707;50.830;4.364;2022-07-21T06:08:43;32.88;;;19.92;;
23078;SDS011;11707;50.830;4.364;2022-07-21T06:11:11;28.95;;;20.10;;
23078;SDS011;11707;50.830;4.364;2022-07-21T06:13:38;30.98;;;20.48;;
23078;SDS011;11707;50.830;4.364;2022-07-21T06:16:04;32.33;;;21.10;;
23078;SDS011;11707;50.830;4.364;2022-07-21T06:18:31;33.38;;;20.08;;
23078;SDS011;11707;50.830;4.364;2022-07-21T06:20:57;29.95;;;21.40;;
23078;SDS011;11707;50.830;4.364;2022-07-21T06:23:22;32.13;;;21.55;;
23078;SDS011;11707;50.830;4.364;2022-07-21T06:25:52;28.95;;;20.63;;
23078;SDS011;11707;50.830;4.364;2022-07-21T06:28:19;30.83;;;21.27;;
23078;SDS011;11707;50.830;4.364;2022-07-21T06:30:45;28.25;;;22.23;;
23078;SDS011;11707;50.830;4.364;2022-07-21T06:33:12;32.97;;;22.42;;
23078;SDS011;11707;50.830;4.364;2022-07-21T06:35:38;36.83;;;23.45;;
23078;SDS011;11707;50.830;4.364;2022-07-21T06:38:03;34.97;;;23.75;;
23078;SDS011;11707;50.830;4.364;2022-07-21T06:40:29;35.72;;;24.00;;
23078;SDS011;11707;50.830;4.364;2022-07-21T06:42:55;37.42;;;25.00;;
23078;SDS011;11707;50.830;4.364;2022-07-21T06:45:21;40.67;;;26.83;;
23078;SDS011;11707;50.830;4.364;2022-07-21T06:47:48;32.90;;;26.30;;
23078;SDS011;11707;50.830;4.364;2022-07-21T06:50:13;44.70;;;27.83;;
23078;SDS011;11707;50.830;4.364;2022-07-21T06:52:40;48.97;;;28.35;;
23078;SDS011;11707;50.830;4.364;2022-07-21T06:55:06;47.50;;;31.45;;
23078;SDS011;11707;50.830;4.364;2022-07-21T06:57:36;52.03;;;29.38;;
23078;SDS011;11707;50.830;4.364;2022-07-21T07:00:03;52.50;;;30.92;;
23078;SDS011;11707;50.830;4.364;2022-07-21T07:02:31;60.60;;;31.63;;
23078;SDS011;11707;50.830;4.364;2022-07-21T07:04:56;54.28;;;32.70;;
23078;SDS011;11707;50.830;4.364;2022-07-21T07:07:22;52.35;;;33.35;;
23078;SDS011;11707;50.830;4.364;2022-07-21T07:09:48;58.33;;;33.22;;
23078;SDS011;11707;50.830;4.364;2022-07-21T07:12:13;55.72;;;33.05;;
23078;SDS011;11707;50.830;4.364;2022-07-21T07:14:39;57.72;;;34.42;;
23078;SDS011;11707;50.830;4.364;2022-07-21T07:17:05;55.63;;;32.50;;
23078;SDS011;11707;50.830;4.364;2022-07-21T07:19:31;60.85;;;33.95;;
23078;SDS011;11707;50.830;4.364;2022-07-21T07:21:57;59.35;;;33.88;;
23078;SDS011;11707;50.830;4.364;2022-07-21T07:24:23;53.50;;;31.42;;
23078;SDS011;11707;50.830;4.364;2022-07-21T07:26:49;52.15;;;32.05;;
23078;SDS011;11707;50.830;4.364;2022-07-21T07:29:14;56.58;;;32.35;;
23078;SDS011;11707;50.830;4.364;2022-07-21T07:31:40;62.17;;;35.03;;
23078;SDS011;11707;50.830;4.364;2022-07-21T07:34:06;56.53;;;33.95;;
23078;SDS011;11707;50.830;4.364;2022-07-21T07:36:32;55.63;;;32.85;;
23078;SDS011;11707;50.830;4.364;2022-07-21T07:38:58;55.70;;;32.97;;
23078;SDS011;11707;50.830;4.364;2022-07-21T07:41:24;57.92;;;34.10;;
23078;SDS011;11707;50.830;4.364;2022-07-21T07:43:51;56.22;;;33.03;;
23078;SDS011;11707;50.830;4.364;2022-07-21T07:46:18;55.47;;;34.17;;
23078;SDS011;11707;50.830;4.364;2022-07-21T07:48:44;59.10;;;36.10;;
23078;SDS011;11707;50.830;4.364;2022-07-21T07:51:10;67.40;;;36.15;;
23078;SDS011;11707;50.830;4.364;2022-07-21T07:53:37;61.15;;;35.75;;
23078;SDS011;11707;50.830;4.364;2022-07-21T07:56:04;52.13;;;34.83;;
23078;SDS011;11707;50.830;4.364;2022-07-21T07:58:30;63.50;;;35.47;;
23078;SDS011;11707;50.830;4.364;2022-07-21T08:00:56;59.92;;;36.42;;
23078;SDS011;11707;50.830;4.364;2022-07-21T08:03:22;49.35;;;33.95;;
23078;SDS011;11707;50.830;4.364;2022-07-21T08:05:49;60.90;;;37.15;;
23078;SDS011;11707;50.830;4.364;2022-07-21T08:08:15;60.33;;;35.05;;
23078;SDS011;11707;50.830;4.364;2022-07-21T08:10:42;53.08;;;34.63;;
23078;SDS011;11707;50.830;4.364;2022-07-21T08:13:14;51.20;;;36.53;;
23078;SDS011;11707;50.830;4.364;2022-07-21T08:15:41;56.00;;;36.10;;
23078;SDS011;11707;50.830;4.364;2022-07-21T08:18:08;55.42;;;37.10;;
23078;SDS011;11707;50.830;4.364;2022-07-21T08:20:34;53.08;;;36.45;;
23078;SDS011;11707;50.830;4.364;2022-07-21T08:23:00;53.38;;;35.05;;
23078;SDS011;11707;50.830;4.364;2022-07-21T08:25:26;46.80;;;33.30;;
23078;SDS011;11707;50.830;4.364;2022-07-21T08:27:52;53.63;;;35.08;;
23078;SDS011;11707;50.830;4.364;2022-07-21T08:30:18;58.47;;;36.13;;
23078;SDS011;11707;50.830;4.364;2022-07-21T08:32:44;54.10;;;35.53;;
23078;SDS011;11707;50.830;4.364;2022-07-21T08:35:09;51.47;;;35.35;;
23078;SDS011;11707;50.830;4.364;2022-07-21T08:37:35;51.28;;;33.63;;
23078;SDS011;11707;50.830;4.364;2022-07-21T08:40:03;53.40;;;34.83;;
23078;SDS011;11707;50.830;4.364;2022-07-21T08:42:30;44.90;;;31.75;;
23078;SDS011;11707;50.830;4.364;2022-07-21T08:44:55;43.20;;;31.75;;
23078;SDS011;11707;50.830;4.364;2022-07-21T08:47:22;47.03;;;31.90;;
23078;SDS011;11707;50.830;4.364;2022-07-21T08:49:49;42.80;;;31.60;;
23078;SDS011;11707;50.830;4.364;2022-07-21T08:52:15;55.83;;;34.40;;
23078;SDS011;11707;50.830;4.364;2022-07-21T08:54:41;41.45;;;29.25;;
23078;SDS011;11707;50.830;4.364;2022-07-21T08:57:07;49.90;;;32.30;;
23078;SDS011;11707;50.830;4.364;2022-07-21T08:59:32;47.63;;;32.28;;
23078;SDS011;11707;50.830;4.364;2022-07-21T09:01:58;45.30;;;28.55;;
23078;SDS011;11707;50.830;4.364;2022-07-21T09:04:25;48.80;;;29.52;;
23078;SDS011;11707;50.830;4.364;2022-07-21T09:07:04;26.33;;;19.70;;
23078;SDS011;11707;50.830;4.364;2022-07-21T09:09:33;25.83;;;18.30;;
23078;SDS011;11707;50.830;4.364;2022-07-21T09:12:01;15.75;;;12.98;;
23078;SDS011;11707;50.830;4.364;2022-07-21T09:14:31;17.70;;;11.85;;
23078;SDS011;11707;50.830;4.364;2022-07-21T09:16:59;17.90;;;12.43;;
23078;SDS011;11707;50.830;4.364;2022-07-21T09:19:28;12.77;;;10.52;;
23078;SDS011;11707;50.830;4.364;2022-07-21T09:24:31;20.02;;;12.88;;
23078;SDS011;11707;50.830;4.364;2022-07-21T09:34:38;13.68;;;11.15;;
23078;SDS011;11707;50.830;4.364;2022-07-21T09:37:05;12.63;;;10.45;;
23078;SDS011;11707;50.830;4.364;2022-07-21T09:42:12;12.45;;;10.02;;
23078;SDS011;11707;50.830;4.364;2022-07-21T09:44:56;11.80;;;9.93;;
23078;SDS011;11707;50.830;4.364;2022-07-21T09:47:28;14.25;;;9.50;;
23078;SDS011;11707;50.830;4.364;2022-07-21T09:49:55;12.07;;;9.57;;
23078;SDS011;11707;50.830;4.364;2022-07-21T09:52:26;10.68;;;9.38;;
23078;SDS011;11707;50.830;4.364;2022-07-21T09:55:00;9.77;;;8.43;;
23078;SDS011;11707;50.830;4.364;2022-07-21T09:57:28;11.88;;;8.65;;
23078;SDS011;11707;50.830;4.364;2022-07-21T09:59:54;14.63;;;8.85;;
23078;SDS011;11707;50.830;4.364;2022-07-21T10:04:54;9.98;;;7.45;;
23078;SDS011;11707;50.830;4.364;2022-07-21T10:07:24;12.07;;;7.05;;
23078;SDS011;11707;50.830;4.364;2022-07-21T10:09:51;8.50;;;6.68;;
23078;SDS011;11707;50.830;4.364;2022-07-21T10:12:17;10.45;;;7.50;;
23078;SDS011;11707;50.830;4.364;2022-07-21T10:14:44;12.82;;;8.85;;
23078;SDS011;11707;50.830;4.364;2022-07-21T10:17:11;12.45;;;7.75;;
23078;SDS011;11707;50.830;4.364;2022-07-21T10:25:39;10.98;;;8.35;;
23078;SDS011;11707;50.830;4.364;2022-07-21T10:28:17;12.93;;;8.50;;
23078;SDS011;11707;50.830;4.364;2022-07-21T10:30:52;13.60;;;7.90;;
23078;SDS011;11707;50.830;4.364;2022-07-21T10:33:21;10.27;;;8.15;;
23078;SDS011;11707;50.830;4.364;2022-07-21T10:36:07;12.68;;;8.95;;
23078;SDS011;11707;50.830;4.364;2022-07-21T10:38:34;12.25;;;8.25;;
23078;SDS011;11707;50.830;4.364;2022-07-21T10:41:02;12.27;;;8.05;;
23078;SDS011;11707;50.830;4.364;2022-07-21T10:45:56;22.02;;;9.77;;
23078;SDS011;11707;50.830;4.364;2022-07-21T10:51:10;15.85;;;10.00;;
23078;SDS011;11707;50.830;4.364;2022-07-21T10:53:36;16.60;;;9.13;;
23078;SDS011;11707;50.830;4.364;2022-07-21T10:56:03;16.40;;;10.40;;
23078;SDS011;11707;50.830;4.364;2022-07-21T10:58:30;21.90;;;10.60;;
23078;SDS011;11707;50.830;4.364;2022-07-21T11:00:57;22.67;;;11.45;;
23078;SDS011;11707;50.830;4.364;2022-07-21T11:08:37;14.07;;;9.15;;
23078;SDS011;11707;50.830;4.364;2022-07-21T11:21:54;13.48;;;7.70;;
23078;SDS011;11707;50.830;4.364;2022-07-21T11:24:20;12.43;;;6.63;;
23078;SDS011;11707;50.830;4.364;2022-07-21T11:27:04;14.85;;;7.72;;
23078;SDS011;11707;50.830;4.364;2022-07-21T11:29:35;13.18;;;7.68;;
23078;SDS011;11707;50.830;4.364;2022-07-21T11:32:02;17.45;;;9.00;;
23078;SDS011;11707;50.830;4.364;2022-07-21T11:37:15;15.25;;;8.05;;
23078;SDS011;11707;50.830;4.364;2022-07-21T11:39:43;15.35;;;8.63;;
23078;SDS011;11707;50.830;4.364;2022-07-21T11:42:10;14.65;;;8.52;;
23078;SDS011;11707;50.830;4.364;2022-07-21T11:44:38;16.83;;;8.40;;
23078;SDS011;11707;50.830;4.364;2022-07-21T11:47:05;15.13;;;8.20;;
23078;SDS011;11707;50.830;4.364;2022-07-21T11:49:32;16.17;;;8.60;;
23078;SDS011;11707;50.830;4.364;2022-07-21T11:52:00;18.33;;;8.57;;
23078;SDS011;11707;50.830;4.364;2022-07-21T11:57:06;17.90;;;8.93;;
23078;SDS011;11707;50.830;4.364;2022-07-21T11:59:33;13.23;;;7.88;;
23078;SDS011;11707;50.830;4.364;2022-07-21T12:04:30;14.25;;;7.03;;
23078;SDS011;11707;50.830;4.364;2022-07-21T12:06:56;15.00;;;7.82;;
23078;SDS011;11707;50.830;4.364;2022-07-21T12:09:22;16.63;;;7.13;;
23078;SDS011;11707;50.830;4.364;2022-07-21T12:11:48;14.05;;;7.18;;
23078;SDS011;11707;50.830;4.364;2022-07-21T12:14:15;12.45;;;7.57;;
23078;SDS011;11707;50.830;4.364;2022-07-21T12:16:52;11.65;;;7.22;;
23078;SDS011;11707;50.830;4.364;2022-07-21T12:19:19;12.55;;;5.70;;
23078;SDS011;11707;50.830;4.364;2022-07-21T12:21:50;10.68;;;6.25;;
23078;SDS011;11707;50.830;4.364;2022-07-21T12:24:17;15.65;;;6.68;;
23078;SDS011;11707;50.830;4.364;2022-07-21T12:26:44;16.80;;;7.43;;
23078;SDS011;11707;50.830;4.364;2022-07-21T12:29:24;15.40;;;7.45;;
23078;SDS011;11707;50.830;4.364;2022-07-21T12:31:53;18.63;;;7.85;;
23078;SDS011;11707;50.830;4.364;2022-07-21T12:34:19;15.88;;;7.60;;
23078;SDS011;11707;50.830;4.364;2022-07-21T12:36:45;18.98;;;7.70;;
23078;SDS011;11707;50.830;4.364;2022-07-21T12:42:05;12.00;;;6.30;;
23078;SDS011;11707;50.830;4.364;2022-07-21T12:44:36;17.23;;;7.10;;
23078;SDS011;11707;50.830;4.364;2022-07-21T12:47:12;11.32;;;5.82;;
23078;SDS011;11707;50.830;4.364;2022-07-21T12:52:28;18.88;;;5.82;;
23078;SDS011;11707;50.830;4.364;2022-07-21T12:54:55;9.70;;;4.60;;
23078;SDS011;11707;50.830;4.364;2022-07-21T12:57:24;15.90;;;5.88;;
23078;SDS011;11707;50.830;4.364;2022-07-21T12:59:51;12.82;;;6.07;;
23078;SDS011;11707;50.830;4.364;2022-07-21T13:02:17;15.23;;;6.30;;
23078;SDS011;11707;50.830;4.364;2022-07-21T13:04:43;12.98;;;5.97;;
23078;SDS011;11707;50.830;4.364;2022-07-21T13:07:08;14.57;;;5.88;;
23078;SDS011;11707;50.830;4.364;2022-07-21T13:09:34;14.82;;;5.63;;
23078;SDS011;11707;50.830;4.364;2022-07-21T13:12:00;16.15;;;5.95;;
23078;SDS011;11707;50.830;4.364;2022-07-21T13:14:26;13.73;;;6.43;;
23078;SDS011;11707;50.830;4.364;2022-07-21T13:16:51;12.20;;;5.80;;
23078;SDS011;11707;50.830;4.364;2022-07-21T13:19:17;17.27;;;6.05;;
23078;SDS011;11707;50.830;4.364;2022-07-21T13:21:43;15.60;;;6.07;;
23078;SDS011;11707;50.830;4.364;2022-07-21T13:24:09;18.17;;;5.88;;
23078;SDS011;11707;50.830;4.364;2022-07-21T13:26:35;12.35;;;5.22;;
23078;SDS011;11707;50.830;4.364;2022-07-21T13:29:00;12.75;;;6.07;;
23078;SDS011;11707;50.830;4.364;2022-07-21T13:31:27;22.02;;;6.82;;
23078;SDS011;11707;50.830;4.364;2022-07-21T13:33:53;16.10;;;6.07;;
23078;SDS011;11707;50.830;4.364;2022-07-21T13:36:18;14.13;;;6.60;;
23078;SDS011;11707;50.830;4.364;2022-07-21T13:38:44;16.85;;;5.72;;
23078;SDS011;11707;50.830;4.364;2022-07-21T13:41:10;11.60;;;6.35;;
23078;SDS011;11707;50.830;4.364;2022-07-21T13:43:36;15.07;;;6.10;;
23078;SDS011;11707;50.830;4.364;2022-07-21T13:46:02;17.27;;;6.18;;
23078;SDS011;11707;50.830;4.364;2022-07-21T13:48:28;15.18;;;6.18;;
23078;SDS011;11707;50.830;4.364;2022-07-21T13:50:54;13.93;;;5.95;;
23078;SDS011;11707;50.830;4.364;2022-07-21T13:53:19;13.32;;;6.30;;
23078;SDS011;11707;50.830;4.364;2022-07-21T13:55:45;15.50;;;6.03;;
23078;SDS011;11707;50.830;4.364;2022-07-21T13:58:11;19.00;;;6.00;;
23078;SDS011;11707;50.830;4.364;2022-07-21T14:00:36;17.55;;;5.85;;
23078;SDS011;11707;50.830;4.364;2022-07-21T14:03:02;17.33;;;5.70;;
23078;SDS011;11707;50.830;4.364;2022-07-21T14:05:28;17.13;;;6.30;;
23078;SDS011;11707;50.830;4.364;2022-07-21T14:07:54;21.77;;;6.63;;
23078;SDS011;11707;50.830;4.364;2022-07-21T14:10:19;17.13;;;6.10;;
23078;SDS011;11707;50.830;4.364;2022-07-21T14:12:45;14.57;;;5.78;;
23078;SDS011;11707;50.830;4.364;2022-07-21T14:15:11;20.17;;;6.47;;
23078;SDS011;11707;50.830;4.364;2022-07-21T14:17:37;18.02;;;6.65;;
23078;SDS011;11707;50.830;4.364;2022-07-21T14:20:03;18.55;;;6.93;;
23078;SDS011;11707;50.830;4.364;2022-07-21T14:22:29;15.88;;;6.57;;
23078;SDS011;11707;50.830;4.364;2022-07-21T14:24:55;17.10;;;5.97;;
23078;SDS011;11707;50.830;4.364;2022-07-21T14:27:39;14.65;;;5.88;;
23078;SDS011;11707;50.830;4.364;2022-07-21T14:30:05;12.27;;;5.80;;
23078;SDS011;11707;50.830;4.364;2022-07-21T14:32:31;16.20;;;6.40;;
23078;SDS011;11707;50.830;4.364;2022-07-21T14:34:57;21.63;;;6.53;;
23078;SDS011;11707;50.830;4.364;2022-07-21T14:37:23;14.95;;;5.97;;
23078;SDS011;11707;50.830;4.364;2022-07-21T14:39:49;24.15;;;6.68;;
23078;SDS011;11707;50.830;4.364;2022-07-21T14:42:15;11.77;;;5.05;;
23078;SDS011;11707;50.830;4.364;2022-07-21T14:44:41;11.77;;;4.68;;
23078;SDS011;11707;50.830;4.364;2022-07-21T14:47:07;15.52;;;5.38;;
23078;SDS011;11707;50.830;4.364;2022-07-21T14:49:34;15.27;;;5.10;;
23078;SDS011;11707;50.830;4.364;2022-07-21T14:52:00;12.60;;;4.93;;
23078;SDS011;11707;50.830;4.364;2022-07-21T14:54:26;15.85;;;5.85;;
23078;SDS011;11707;50.830;4.364;2022-07-21T14:56:51;11.85;;;4.82;;
23078;SDS011;11707;50.830;4.364;2022-07-21T14:59:17;14.13;;;4.40;;
23078;SDS011;11707;50.830;4.364;2022-07-21T15:01:43;11.27;;;4.90;;
23078;SDS011;11707;50.830;4.364;2022-07-21T15:04:09;13.20;;;4.50;;
23078;SDS011;11707;50.830;4.364;2022-07-21T15:06:34;13.07;;;5.20;;
23078;SDS011;11707;50.830;4.364;2022-07-21T15:09:00;10.02;;;4.10;;
23078;SDS011;11707;50.830;4.364;2022-07-21T15:11:26;17.30;;;4.40;;
23078;SDS011;11707;50.830;4.364;2022-07-21T15:13:51;10.48;;;4.43;;
23078;SDS011;11707;50.830;4.364;2022-07-21T15:16:17;13.60;;;4.47;;
23078;SDS011;11707;50.830;4.364;2022-07-21T15:18:43;12.35;;;4.50;;
23078;SDS011;11707;50.830;4.364;2022-07-21T15:21:09;12.15;;;4.47;;
23078;SDS011;11707;50.830;4.364;2022-07-21T15:23:35;10.52;;;4.35;;